AAL1614 KLAX-KPHX
Flight info
| Callsign | AAL1614 |
|---|---|
| Flight time | N/A |
| Altitude | 31000 |
| Route | DOTSS2 CNERY BLH HYDRR1 |
| Aircraft | B738/M-SABDFGRVYL/LB2 |
Departure
| Time | 2026-04-26 03:21 |
|---|---|
| Airport | Los Angeles International Airport (KLAX) |
Arrival
| Time | N/A |
|---|---|
| Airport | Phoenix Sky Harbor International Airport (KPHX) |
| Time | Latitude | Longitude | Altitude | Speed | Heading |
|---|---|---|---|---|---|
| 2026-04-26 02:38 | 33.94149 | -118.40635 | 123 ft | 0 kts | 264° |
| 2026-04-26 03:03 | 33.94149 | -118.40633 | 123 ft | 1 kts | 264° |
| 2026-04-26 03:04 | 33.94151 | -118.40616 | 122 ft | 2 kts | 264° |
| 2026-04-26 03:04 | 33.94152 | -118.40604 | 122 ft | 2 kts | 258° |
| 2026-04-26 03:04 | 33.94159 | -118.40589 | 122 ft | 2 kts | 220° |
| 2026-04-26 03:04 | 33.94172 | -118.40580 | 121 ft | 2 kts | 188° |
| 2026-04-26 03:05 | 33.94181 | -118.40579 | 121 ft | 1 kts | 170° |
| 2026-04-26 03:05 | 33.94187 | -118.40581 | 121 ft | 0 kts | 172° |
| 2026-04-26 03:13 | 33.94182 | -118.40580 | 121 ft | 2 kts | 173° |
| 2026-04-26 03:13 | 33.94152 | -118.40577 | 121 ft | 6 kts | 174° |
| 2026-04-26 03:14 | 33.94096 | -118.40572 | 122 ft | 10 kts | 172° |
| 2026-04-26 03:14 | 33.94008 | -118.40555 | 123 ft | 15 kts | 171° |
| 2026-04-26 03:14 | 33.93884 | -118.40540 | 123 ft | 20 kts | 173° |
| 2026-04-26 03:14 | 33.93831 | -118.40464 | 122 ft | 18 kts | 86° |
| 2026-04-26 03:15 | 33.93847 | -118.40309 | 120 ft | 24 kts | 81° |
| 2026-04-26 03:15 | 33.93866 | -118.40111 | 119 ft | 29 kts | 81° |
| 2026-04-26 03:15 | 33.93887 | -118.39918 | 115 ft | 34 kts | 82° |
| 2026-04-26 03:15 | 33.93909 | -118.39691 | 110 ft | 27 kts | 81° |
| 2026-04-26 03:16 | 33.93933 | -118.39467 | 109 ft | 32 kts | 83° |
| 2026-04-26 03:16 | 33.93959 | -118.39209 | 107 ft | 38 kts | 82° |
| 2026-04-26 03:16 | 33.93989 | -118.38915 | 103 ft | 29 kts | 80° |
| 2026-04-26 03:16 | 33.94015 | -118.38673 | 103 ft | 34 kts | 81° |
| 2026-04-26 03:17 | 33.94032 | -118.38490 | 103 ft | 37 kts | 82° |
| 2026-04-26 03:17 | 33.94063 | -118.38203 | 100 ft | 30 kts | 83° |
| 2026-04-26 03:17 | 33.94076 | -118.38065 | 100 ft | 9 kts | 83° |
| 2026-04-26 03:17 | 33.94076 | -118.38040 | 100 ft | 0 kts | 104° |
| 2026-04-26 03:19 | 33.94062 | -118.38015 | 100 ft | 7 kts | 138° |
| 2026-04-26 03:19 | 33.93996 | -118.38017 | 100 ft | 12 kts | 220° |
| 2026-04-26 03:20 | 33.93974 | -118.38132 | 100 ft | 17 kts | 262° |
| 2026-04-26 03:20 | 33.93949 | -118.38373 | 101 ft | 56 kts | 261° |
| 2026-04-26 03:20 | 33.93877 | -118.39093 | 105 ft | 115 kts | 261° |
| 2026-04-26 03:20 | 33.93748 | -118.40368 | 178 ft | 157 kts | 264° |
| 2026-04-26 03:21 | 33.93664 | -118.41671 | 633 ft | 162 kts | 267° |
| 2026-04-26 03:21 | 33.93568 | -118.42973 | 1064 ft | 171 kts | 265° |
| 2026-04-26 03:21 | 33.93468 | -118.44392 | 1548 ft | 174 kts | 267° |
| 2026-04-26 03:22 | 33.92584 | -118.47349 | 2027 ft | 205 kts | 226° |
| 2026-04-26 03:22 | 33.91502 | -118.48611 | 2326 ft | 220 kts | 228° |
| 2026-04-26 03:22 | 33.90537 | -118.49876 | 2622 ft | 233 kts | 231° |
| 2026-04-26 03:22 | 33.89486 | -118.51362 | 3019 ft | 245 kts | 231° |
| 2026-04-26 03:23 | 33.88371 | -118.52958 | 3531 ft | 254 kts | 232° |
| 2026-04-26 03:23 | 33.87182 | -118.54525 | 4256 ft | 256 kts | 224° |
| 2026-04-26 03:23 | 33.83880 | -118.55866 | 5663 ft | 269 kts | 179° |
| 2026-04-26 03:24 | 33.82041 | -118.55444 | 6323 ft | 272 kts | 171° |
| 2026-04-26 03:24 | 33.80007 | -118.54868 | 6957 ft | 277 kts | 172° |
| 2026-04-26 03:24 | 33.76389 | -118.53884 | 8184 ft | 281 kts | 172° |
| 2026-04-26 03:25 | 33.74498 | -118.53378 | 8792 ft | 284 kts | 172° |
| 2026-04-26 03:25 | 33.72050 | -118.52603 | 9598 ft | 291 kts | 163° |
| 2026-04-26 03:25 | 33.70254 | -118.51311 | 10194 ft | 304 kts | 142° |
| 2026-04-26 03:25 | 33.69018 | -118.49483 | 10497 ft | 323 kts | 122° |
| 2026-04-26 03:26 | 33.68121 | -118.46915 | 10794 ft | 340 kts | 111° |
| 2026-04-26 03:26 | 33.67419 | -118.44455 | 11098 ft | 352 kts | 111° |
| 2026-04-26 03:26 | 33.66608 | -118.41620 | 11386 ft | 368 kts | 112° |
| 2026-04-26 03:27 | 33.64778 | -118.35160 | 12325 ft | 390 kts | 108° |
| 2026-04-26 03:27 | 33.64416 | -118.33054 | 12990 ft | 386 kts | 101° |
| 2026-04-26 03:27 | 33.64184 | -118.28780 | 14193 ft | 382 kts | 92° |
| 2026-04-26 03:27 | 33.64231 | -118.25636 | 15065 ft | 370 kts | 90° |
| 2026-04-26 03:28 | 33.64323 | -118.22636 | 15377 ft | 364 kts | 90° |
| 2026-04-26 03:28 | 33.64401 | -118.19614 | 15444 ft | 366 kts | 91° |
| 2026-04-26 03:28 | 33.64452 | -118.16503 | 15480 ft | 368 kts | 92° |
| 2026-04-26 03:28 | 33.64473 | -118.13357 | 15565 ft | 368 kts | 92° |
| 2026-04-26 03:29 | 33.64476 | -118.10262 | 15626 ft | 369 kts | 92° |
| 2026-04-26 03:29 | 33.64470 | -118.07201 | 15681 ft | 373 kts | 92° |
| 2026-04-26 03:29 | 33.64465 | -118.04088 | 15773 ft | 374 kts | 92° |